sensor_id;sensor_type;location;lat;lon;timestamp;P1;durP1;ratioP1;P2;durP2;ratioP2
36547;SDS011;22551;52.206;4.856;2022-07-09T00:02:48;10.65;;;6.82;;
36547;SDS011;22551;52.206;4.856;2022-07-09T00:07:59;15.63;;;8.57;;
36547;SDS011;22551;52.206;4.856;2022-07-09T00:13:03;14.30;;;8.20;;
36547;SDS011;22551;52.206;4.856;2022-07-09T00:18:05;14.35;;;8.07;;
36547;SDS011;22551;52.206;4.856;2022-07-09T00:23:10;13.30;;;8.27;;
36547;SDS011;22551;52.206;4.856;2022-07-09T00:28:13;17.25;;;8.52;;
36547;SDS011;22551;52.206;4.856;2022-07-09T00:33:15;13.77;;;8.85;;
36547;SDS011;22551;52.206;4.856;2022-07-09T00:38:18;13.48;;;7.88;;
36547;SDS011;22551;52.206;4.856;2022-07-09T00:43:21;13.83;;;8.93;;
36547;SDS011;22551;52.206;4.856;2022-07-09T00:48:24;15.52;;;9.18;;
36547;SDS011;22551;52.206;4.856;2022-07-09T00:53:28;15.30;;;9.43;;
36547;SDS011;22551;52.206;4.856;2022-07-09T00:58:30;17.85;;;8.70;;
36547;SDS011;22551;52.206;4.856;2022-07-09T01:03:33;18.02;;;9.18;;
36547;SDS011;22551;52.206;4.856;2022-07-09T01:08:36;12.93;;;8.50;;
36547;SDS011;22551;52.206;4.856;2022-07-09T01:13:41;20.33;;;9.90;;
36547;SDS011;22551;52.206;4.856;2022-07-09T01:18:44;17.48;;;10.13;;
36547;SDS011;22551;52.206;4.856;2022-07-09T01:23:48;15.55;;;9.98;;
36547;SDS011;22551;52.206;4.856;2022-07-09T01:28:51;19.20;;;10.45;;
36547;SDS011;22551;52.206;4.856;2022-07-09T01:33:54;20.17;;;9.60;;
36547;SDS011;22551;52.206;4.856;2022-07-09T01:38:58;20.10;;;10.10;;
36547;SDS011;22551;52.206;4.856;2022-07-09T01:44:00;14.68;;;9.88;;
36547;SDS011;22551;52.206;4.856;2022-07-09T01:49:03;17.70;;;9.70;;
36547;SDS011;22551;52.206;4.856;2022-07-09T01:54:07;16.55;;;9.38;;
36547;SDS011;22551;52.206;4.856;2022-07-09T01:59:09;14.97;;;8.63;;
36547;SDS011;22551;52.206;4.856;2022-07-09T02:04:11;14.20;;;8.88;;
36547;SDS011;22551;52.206;4.856;2022-07-09T02:09:16;15.30;;;9.07;;
36547;SDS011;22551;52.206;4.856;2022-07-09T02:14:18;15.93;;;9.45;;
36547;SDS011;22551;52.206;4.856;2022-07-09T02:19:21;16.20;;;9.82;;
36547;SDS011;22551;52.206;4.856;2022-07-09T02:24:24;18.73;;;9.35;;
36547;SDS011;22551;52.206;4.856;2022-07-09T02:29:28;15.05;;;9.50;;
36547;SDS011;22551;52.206;4.856;2022-07-09T02:34:30;15.52;;;8.95;;
36547;SDS011;22551;52.206;4.856;2022-07-09T02:39:34;12.65;;;7.90;;
36547;SDS011;22551;52.206;4.856;2022-07-09T02:44:39;12.82;;;8.02;;
36547;SDS011;22551;52.206;4.856;2022-07-09T02:49:43;16.77;;;8.70;;
36547;SDS011;22551;52.206;4.856;2022-07-09T02:59:51;15.52;;;8.68;;
36547;SDS011;22551;52.206;4.856;2022-07-09T03:04:53;15.55;;;9.25;;
36547;SDS011;22551;52.206;4.856;2022-07-09T03:09:57;18.17;;;10.18;;
36547;SDS011;22551;52.206;4.856;2022-07-09T03:14:59;18.07;;;11.57;;
36547;SDS011;22551;52.206;4.856;2022-07-09T03:20:02;18.70;;;11.15;;
36547;SDS011;22551;52.206;4.856;2022-07-09T03:25:07;21.50;;;11.20;;
36547;SDS011;22551;52.206;4.856;2022-07-09T03:30:10;22.08;;;12.05;;
36547;SDS011;22551;52.206;4.856;2022-07-09T03:35:13;20.65;;;12.00;;
36547;SDS011;22551;52.206;4.856;2022-07-09T03:40:18;19.30;;;11.63;;
36547;SDS011;22551;52.206;4.856;2022-07-09T03:45:20;22.13;;;11.10;;
36547;SDS011;22551;52.206;4.856;2022-07-09T03:50:23;21.40;;;12.10;;
36547;SDS011;22551;52.206;4.856;2022-07-09T03:55:26;19.40;;;11.38;;
36547;SDS011;22551;52.206;4.856;2022-07-09T04:00:29;19.33;;;10.93;;
36547;SDS011;22551;52.206;4.856;2022-07-09T04:05:31;18.60;;;11.45;;
36547;SDS011;22551;52.206;4.856;2022-07-09T04:10:35;17.45;;;10.32;;
36547;SDS011;22551;52.206;4.856;2022-07-09T04:15:37;16.53;;;10.17;;
36547;SDS011;22551;52.206;4.856;2022-07-09T04:20:40;18.65;;;10.95;;
36547;SDS011;22551;52.206;4.856;2022-07-09T04:25:43;18.83;;;11.27;;
36547;SDS011;22551;52.206;4.856;2022-07-09T04:30:48;18.73;;;10.80;;
36547;SDS011;22551;52.206;4.856;2022-07-09T04:35:50;16.25;;;10.85;;
36547;SDS011;22551;52.206;4.856;2022-07-09T04:40:53;17.73;;;11.25;;
36547;SDS011;22551;52.206;4.856;2022-07-09T04:45:56;17.17;;;10.67;;
36547;SDS011;22551;52.206;4.856;2022-07-09T04:50:59;18.70;;;11.05;;
36547;SDS011;22551;52.206;4.856;2022-07-09T04:56:02;18.70;;;11.95;;
36547;SDS011;22551;52.206;4.856;2022-07-09T05:01:06;18.65;;;11.13;;
36547;SDS011;22551;52.206;4.856;2022-07-09T05:06:08;17.50;;;10.88;;
36547;SDS011;22551;52.206;4.856;2022-07-09T05:11:14;17.17;;;10.43;;
36547;SDS011;22551;52.206;4.856;2022-07-09T05:16:17;18.70;;;10.30;;
36547;SDS011;22551;52.206;4.856;2022-07-09T05:21:22;17.00;;;11.02;;
36547;SDS011;22551;52.206;4.856;2022-07-09T05:26:27;14.88;;;9.38;;
36547;SDS011;22551;52.206;4.856;2022-07-09T05:31:29;19.35;;;10.57;;
36547;SDS011;22551;52.206;4.856;2022-07-09T05:36:32;16.33;;;9.30;;
36547;SDS011;22551;52.206;4.856;2022-07-09T05:41:35;16.27;;;9.32;;
36547;SDS011;22551;52.206;4.856;2022-07-09T05:46:37;13.00;;;9.03;;
36547;SDS011;22551;52.206;4.856;2022-07-09T05:51:39;15.80;;;8.68;;
36547;SDS011;22551;52.206;4.856;2022-07-09T05:56:45;14.00;;;8.60;;
36547;SDS011;22551;52.206;4.856;2022-07-09T06:01:48;15.95;;;7.88;;
36547;SDS011;22551;52.206;4.856;2022-07-09T06:06:50;13.23;;;8.02;;
36547;SDS011;22551;52.206;4.856;2022-07-09T06:11:53;13.30;;;8.07;;
36547;SDS011;22551;52.206;4.856;2022-07-09T06:16:55;17.30;;;8.43;;
36547;SDS011;22551;52.206;4.856;2022-07-09T06:21:59;16.33;;;9.77;;
36547;SDS011;22551;52.206;4.856;2022-07-09T06:27:02;12.18;;;8.55;;
36547;SDS011;22551;52.206;4.856;2022-07-09T06:32:05;14.73;;;7.63;;
36547;SDS011;22551;52.206;4.856;2022-07-09T06:37:08;22.17;;;9.03;;
36547;SDS011;22551;52.206;4.856;2022-07-09T06:42:12;12.70;;;7.47;;
36547;SDS011;22551;52.206;4.856;2022-07-09T06:47:18;11.07;;;7.20;;
36547;SDS011;22551;52.206;4.856;2022-07-09T06:52:20;15.10;;;6.65;;
36547;SDS011;22551;52.206;4.856;2022-07-09T06:57:24;8.90;;;5.45;;
36547;SDS011;22551;52.206;4.856;2022-07-09T07:02:26;5.80;;;3.10;;
36547;SDS011;22551;52.206;4.856;2022-07-09T07:07:28;6.30;;;2.97;;
36547;SDS011;22551;52.206;4.856;2022-07-09T07:12:32;3.17;;;1.90;;
36547;SDS011;22551;52.206;4.856;2022-07-09T07:17:34;2.97;;;1.80;;
36547;SDS011;22551;52.206;4.856;2022-07-09T07:22:36;4.15;;;1.48;;
36547;SDS011;22551;52.206;4.856;2022-07-09T07:27:40;1.88;;;1.40;;
36547;SDS011;22551;52.206;4.856;2022-07-09T07:32:42;2.77;;;1.13;;
36547;SDS011;22551;52.206;4.856;2022-07-09T07:37:44;3.67;;;1.38;;
36547;SDS011;22551;52.206;4.856;2022-07-09T07:42:50;1.58;;;1.00;;
36547;SDS011;22551;52.206;4.856;2022-07-09T07:47:52;2.10;;;1.30;;
36547;SDS011;22551;52.206;4.856;2022-07-09T07:52:55;1.27;;;0.85;;
36547;SDS011;22551;52.206;4.856;2022-07-09T07:57:58;2.28;;;1.13;;
36547;SDS011;22551;52.206;4.856;2022-07-09T08:03:00;2.00;;;0.80;;
36547;SDS011;22551;52.206;4.856;2022-07-09T08:08:03;2.08;;;1.20;;
36547;SDS011;22551;52.206;4.856;2022-07-09T08:13:06;1.38;;;1.17;;
36547;SDS011;22551;52.206;4.856;2022-07-09T08:18:08;5.88;;;1.40;;
36547;SDS011;22551;52.206;4.856;2022-07-09T08:23:12;4.10;;;1.25;;
36547;SDS011;22551;52.206;4.856;2022-07-09T08:28:18;1.13;;;0.77;;
36547;SDS011;22551;52.206;4.856;2022-07-09T08:33:20;3.13;;;1.00;;
36547;SDS011;22551;52.206;4.856;2022-07-09T08:38:22;4.18;;;1.00;;
36547;SDS011;22551;52.206;4.856;2022-07-09T08:43:26;2.88;;;1.23;;
36547;SDS011;22551;52.206;4.856;2022-07-09T08:48:32;3.90;;;0.90;;
36547;SDS011;22551;52.206;4.856;2022-07-09T08:53:36;1.63;;;0.90;;
36547;SDS011;22551;52.206;4.856;2022-07-09T08:58:43;2.50;;;1.35;;
36547;SDS011;22551;52.206;4.856;2022-07-09T09:03:48;3.65;;;1.02;;
36547;SDS011;22551;52.206;4.856;2022-07-09T09:08:53;4.72;;;1.05;;
36547;SDS011;22551;52.206;4.856;2022-07-09T09:13:57;3.05;;;0.63;;
36547;SDS011;22551;52.206;4.856;2022-07-09T09:18:59;1.98;;;0.40;;
36547;SDS011;22551;52.206;4.856;2022-07-09T09:24:02;0.70;;;0.25;;
36547;SDS011;22551;52.206;4.856;2022-07-09T09:29:07;2.90;;;0.30;;
36547;SDS011;22551;52.206;4.856;2022-07-09T09:34:11;2.03;;;0.70;;
36547;SDS011;22551;52.206;4.856;2022-07-09T09:39:16;0.50;;;0.20;;
36547;SDS011;22551;52.206;4.856;2022-07-09T09:44:21;4.43;;;0.60;;
36547;SDS011;22551;52.206;4.856;2022-07-09T09:49:26;0.90;;;0.20;;
36547;SDS011;22551;52.206;4.856;2022-07-09T09:54:30;2.15;;;0.38;;
36547;SDS011;22551;52.206;4.856;2022-07-09T09:59:35;0.73;;;0.30;;
36547;SDS011;22551;52.206;4.856;2022-07-09T10:04:39;0.55;;;0.28;;
36547;SDS011;22551;52.206;4.856;2022-07-09T10:09:52;0.55;;;0.20;;
36547;SDS011;22551;52.206;4.856;2022-07-09T10:14:56;1.58;;;0.57;;
36547;SDS011;22551;52.206;4.856;2022-07-09T10:20:03;1.17;;;0.22;;
36547;SDS011;22551;52.206;4.856;2022-07-09T10:25:08;0.63;;;0.38;;
36547;SDS011;22551;52.206;4.856;2022-07-09T10:30:25;1.60;;;0.50;;
36547;SDS011;22551;52.206;4.856;2022-07-09T10:35:29;5.35;;;0.45;;
36547;SDS011;22551;52.206;4.856;2022-07-09T10:40:37;1.08;;;0.40;;
36547;SDS011;22551;52.206;4.856;2022-07-09T10:45:44;0.63;;;0.40;;
36547;SDS011;22551;52.206;4.856;2022-07-09T10:50:50;1.25;;;0.30;;
36547;SDS011;22551;52.206;4.856;2022-07-09T10:55:56;3.35;;;0.40;;
36547;SDS011;22551;52.206;4.856;2022-07-09T11:00:59;2.38;;;0.40;;
36547;SDS011;22551;52.206;4.856;2022-07-09T11:06:04;2.13;;;0.60;;
36547;SDS011;22551;52.206;4.856;2022-07-09T11:11:09;1.35;;;0.63;;
36547;SDS011;22551;52.206;4.856;2022-07-09T11:16:13;2.40;;;0.68;;
36547;SDS011;22551;52.206;4.856;2022-07-09T11:21:24;3.58;;;1.35;;
36547;SDS011;22551;52.206;4.856;2022-07-09T11:26:27;7.45;;;0.80;;
36547;SDS011;22551;52.206;4.856;2022-07-09T11:31:31;3.78;;;0.70;;
36547;SDS011;22551;52.206;4.856;2022-07-09T11:36:36;3.60;;;0.60;;
36547;SDS011;22551;52.206;4.856;2022-07-09T11:41:40;1.25;;;0.40;;
36547;SDS011;22551;52.206;4.856;2022-07-09T11:46:45;2.90;;;0.70;;
36547;SDS011;22551;52.206;4.856;2022-07-09T11:51:47;3.03;;;0.95;;
36547;SDS011;22551;52.206;4.856;2022-07-09T11:56:50;1.92;;;0.80;;
36547;SDS011;22551;52.206;4.856;2022-07-09T12:01:53;3.33;;;0.80;;
36547;SDS011;22551;52.206;4.856;2022-07-09T12:06:56;0.98;;;0.45;;
36547;SDS011;22551;52.206;4.856;2022-07-09T12:11:59;4.20;;;0.70;;
36547;SDS011;22551;52.206;4.856;2022-07-09T12:17:02;4.20;;;0.90;;
36547;SDS011;22551;52.206;4.856;2022-07-09T12:22:05;4.35;;;0.80;;
36547;SDS011;22551;52.206;4.856;2022-07-09T12:27:07;0.60;;;0.50;;
36547;SDS011;22551;52.206;4.856;2022-07-09T12:32:10;4.60;;;0.50;;
36547;SDS011;22551;52.206;4.856;2022-07-09T12:37:12;1.67;;;0.82;;
36547;SDS011;22551;52.206;4.856;2022-07-09T12:42:14;4.50;;;2.05;;
36547;SDS011;22551;52.206;4.856;2022-07-09T12:47:19;2.85;;;1.33;;
36547;SDS011;22551;52.206;4.856;2022-07-09T12:52:21;5.35;;;2.17;;
36547;SDS011;22551;52.206;4.856;2022-07-09T12:57:23;5.80;;;2.55;;
36547;SDS011;22551;52.206;4.856;2022-07-09T13:02:27;2.40;;;0.70;;
36547;SDS011;22551;52.206;4.856;2022-07-09T13:12:32;5.03;;;0.70;;
36547;SDS011;22551;52.206;4.856;2022-07-09T13:17:39;3.25;;;0.70;;
36547;SDS011;22551;52.206;4.856;2022-07-09T13:22:41;7.53;;;0.93;;
36547;SDS011;22551;52.206;4.856;2022-07-09T13:27:43;3.67;;;0.70;;
36547;SDS011;22551;52.206;4.856;2022-07-09T13:32:47;4.90;;;1.00;;
36547;SDS011;22551;52.206;4.856;2022-07-09T13:37:49;4.88;;;1.30;;
36547;SDS011;22551;52.206;4.856;2022-07-09T13:42:52;4.70;;;1.10;;
36547;SDS011;22551;52.206;4.856;2022-07-09T13:47:55;5.65;;;0.98;;
36547;SDS011;22551;52.206;4.856;2022-07-09T13:52:57;4.13;;;1.05;;
36547;SDS011;22551;52.206;4.856;2022-07-09T13:58:02;5.28;;;1.20;;
36547;SDS011;22551;52.206;4.856;2022-07-09T14:03:06;3.47;;;0.70;;
36547;SDS011;22551;52.206;4.856;2022-07-09T14:08:08;3.85;;;1.10;;
36547;SDS011;22551;52.206;4.856;2022-07-09T14:13:11;4.40;;;0.85;;
36547;SDS011;22551;52.206;4.856;2022-07-09T14:18:14;4.30;;;1.02;;
36547;SDS011;22551;52.206;4.856;2022-07-09T14:23:17;3.40;;;0.68;;
36547;SDS011;22551;52.206;4.856;2022-07-09T14:28:19;4.05;;;0.68;;
36547;SDS011;22551;52.206;4.856;2022-07-09T14:33:22;3.03;;;0.60;;
36547;SDS011;22551;52.206;4.856;2022-07-09T14:38:24;2.17;;;0.60;;
36547;SDS011;22551;52.206;4.856;2022-07-09T14:43:27;1.13;;;0.50;;
36547;SDS011;22551;52.206;4.856;2022-07-09T14:48:31;5.45;;;0.77;;
36547;SDS011;22551;52.206;4.856;2022-07-09T14:53:34;6.57;;;0.88;;
36547;SDS011;22551;52.206;4.856;2022-07-09T14:58:36;3.75;;;0.70;;
36547;SDS011;22551;52.206;4.856;2022-07-09T15:03:40;8.55;;;1.45;;
36547;SDS011;22551;52.206;4.856;2022-07-09T15:08:43;1.92;;;0.60;;
36547;SDS011;22551;52.206;4.856;2022-07-09T15:13:46;5.22;;;1.27;;
36547;SDS011;22551;52.206;4.856;2022-07-09T15:18:52;5.07;;;0.90;;
36547;SDS011;22551;52.206;4.856;2022-07-09T15:23:57;4.10;;;0.60;;
36547;SDS011;22551;52.206;4.856;2022-07-09T15:28:59;5.13;;;0.93;;
36547;SDS011;22551;52.206;4.856;2022-07-09T15:34:03;4.60;;;0.50;;
36547;SDS011;22551;52.206;4.856;2022-07-09T15:39:06;4.75;;;0.80;;
36547;SDS011;22551;52.206;4.856;2022-07-09T15:44:08;2.38;;;0.60;;
36547;SDS011;22551;52.206;4.856;2022-07-09T15:49:13;5.85;;;0.80;;
36547;SDS011;22551;52.206;4.856;2022-07-09T15:54:16;8.63;;;1.25;;
36547;SDS011;22551;52.206;4.856;2022-07-09T15:59:18;4.30;;;0.82;;
36547;SDS011;22551;52.206;4.856;2022-07-09T16:04:22;1.42;;;0.80;;
36547;SDS011;22551;52.206;4.856;2022-07-09T16:09:24;2.55;;;0.82;;
36547;SDS011;22551;52.206;4.856;2022-07-09T16:14:27;3.22;;;0.90;;
36547;SDS011;22551;52.206;4.856;2022-07-09T16:19:43;15.18;;;2.28;;
36547;SDS011;22551;52.206;4.856;2022-07-09T16:24:50;2.38;;;0.65;;
36547;SDS011;22551;52.206;4.856;2022-07-09T16:30:09;6.43;;;0.93;;
36547;SDS011;22551;52.206;4.856;2022-07-09T16:35:13;2.97;;;0.70;;
36547;SDS011;22551;52.206;4.856;2022-07-09T16:40:19;4.85;;;0.75;;
36547;SDS011;22551;52.206;4.856;2022-07-09T16:45:22;3.13;;;1.15;;
36547;SDS011;22551;52.206;4.856;2022-07-09T16:50:26;1.08;;;0.57;;
36547;SDS011;22551;52.206;4.856;2022-07-09T16:55:28;5.67;;;0.90;;
36547;SDS011;22551;52.206;4.856;2022-07-09T17:00:30;1.23;;;0.45;;
36547;SDS011;22551;52.206;4.856;2022-07-09T17:05:34;3.75;;;0.80;;
36547;SDS011;22551;52.206;4.856;2022-07-09T17:10:37;1.35;;;0.50;;
36547;SDS011;22551;52.206;4.856;2022-07-09T17:15:40;1.17;;;0.43;;
36547;SDS011;22551;52.206;4.856;2022-07-09T17:20:44;4.28;;;0.65;;
36547;SDS011;22551;52.206;4.856;2022-07-09T17:25:48;2.90;;;0.93;;
36547;SDS011;22551;52.206;4.856;2022-07-09T17:30:50;4.90;;;1.17;;
36547;SDS011;22551;52.206;4.856;2022-07-09T17:35:54;2.90;;;0.82;;
36547;SDS011;22551;52.206;4.856;2022-07-09T17:40:56;1.38;;;0.60;;
36547;SDS011;22551;52.206;4.856;2022-07-09T17:45:58;4.28;;;1.00;;
36547;SDS011;22551;52.206;4.856;2022-07-09T17:51:02;2.13;;;0.85;;
36547;SDS011;22551;52.206;4.856;2022-07-09T17:56:08;1.02;;;0.45;;
36547;SDS011;22551;52.206;4.856;2022-07-09T18:06:32;3.42;;;0.75;;
36547;SDS011;22551;52.206;4.856;2022-07-09T18:11:36;5.53;;;0.73;;
36547;SDS011;22551;52.206;4.856;2022-07-09T18:16:43;1.92;;;0.68;;
36547;SDS011;22551;52.206;4.856;2022-07-09T18:21:48;6.43;;;1.10;;
36547;SDS011;22551;52.206;4.856;2022-07-09T18:26:50;3.70;;;0.63;;
36547;SDS011;22551;52.206;4.856;2022-07-09T18:31:53;2.33;;;0.57;;
36547;SDS011;22551;52.206;4.856;2022-07-09T18:36:57;7.03;;;1.08;;
36547;SDS011;22551;52.206;4.856;2022-07-09T18:41:59;1.67;;;0.57;;
36547;SDS011;22551;52.206;4.856;2022-07-09T18:47:01;1.50;;;0.60;;
36547;SDS011;22551;52.206;4.856;2022-07-09T18:52:05;1.98;;;0.70;;
36547;SDS011;22551;52.206;4.856;2022-07-09T18:57:08;1.05;;;0.40;;
36547;SDS011;22551;52.206;4.856;2022-07-09T19:02:10;1.77;;;0.90;;
36547;SDS011;22551;52.206;4.856;2022-07-09T19:07:14;1.88;;;0.50;;
36547;SDS011;22551;52.206;4.856;2022-07-09T19:17:20;4.45;;;0.60;;
36547;SDS011;22551;52.206;4.856;2022-07-09T19:22:24;1.40;;;0.60;;
36547;SDS011;22551;52.206;4.856;2022-07-09T19:27:26;3.08;;;0.52;;
36547;SDS011;22551;52.206;4.856;2022-07-09T19:32:29;3.97;;;0.50;;
36547;SDS011;22551;52.206;4.856;2022-07-09T19:37:50;5.45;;;0.60;;
36547;SDS011;22551;52.206;4.856;2022-07-09T19:42:52;1.40;;;0.38;;
36547;SDS011;22551;52.206;4.856;2022-07-09T19:47:54;3.60;;;0.82;;
36547;SDS011;22551;52.206;4.856;2022-07-09T19:52:58;3.85;;;0.98;;
36547;SDS011;22551;52.206;4.856;2022-07-09T19:58:00;3.45;;;1.50;;
36547;SDS011;22551;52.206;4.856;2022-07-09T20:03:02;1.35;;;0.40;;
36547;SDS011;22551;52.206;4.856;2022-07-09T20:08:08;9.40;;;4.50;;
36547;SDS011;22551;52.206;4.856;2022-07-09T20:13:15;3.65;;;0.70;;
36547;SDS011;22551;52.206;4.856;2022-07-09T20:18:23;5.45;;;0.75;;
36547;SDS011;22551;52.206;4.856;2022-07-09T20:23:29;9.27;;;1.00;;
36547;SDS011;22551;52.206;4.856;2022-07-09T20:28:36;2.97;;;0.60;;
36547;SDS011;22551;52.206;4.856;2022-07-09T20:33:47;3.40;;;0.53;;
36547;SDS011;22551;52.206;4.856;2022-07-09T20:39:06;4.28;;;0.63;;
36547;SDS011;22551;52.206;4.856;2022-07-09T20:49:13;5.68;;;0.63;;
36547;SDS011;22551;52.206;4.856;2022-07-09T20:54:20;3.38;;;0.73;;
36547;SDS011;22551;52.206;4.856;2022-07-09T20:59:26;7.50;;;1.00;;
36547;SDS011;22551;52.206;4.856;2022-07-09T21:04:30;6.13;;;0.80;;
36547;SDS011;22551;52.206;4.856;2022-07-09T21:09:40;4.60;;;1.55;;
36547;SDS011;22551;52.206;4.856;2022-07-09T21:14:42;5.03;;;1.42;;
36547;SDS011;22551;52.206;4.856;2022-07-09T21:19:44;2.67;;;0.65;;
36547;SDS011;22551;52.206;4.856;2022-07-09T21:24:48;1.63;;;0.65;;
36547;SDS011;22551;52.206;4.856;2022-07-09T21:29:50;8.43;;;0.60;;
36547;SDS011;22551;52.206;4.856;2022-07-09T21:34:52;3.53;;;0.90;;
36547;SDS011;22551;52.206;4.856;2022-07-09T21:40:05;4.90;;;0.75;;
36547;SDS011;22551;52.206;4.856;2022-07-09T21:45:17;7.55;;;0.90;;
36547;SDS011;22551;52.206;4.856;2022-07-09T21:50:34;5.43;;;0.82;;
36547;SDS011;22551;52.206;4.856;2022-07-09T21:55:42;5.07;;;0.60;;
36547;SDS011;22551;52.206;4.856;2022-07-09T22:00:48;2.35;;;0.68;;
36547;SDS011;22551;52.206;4.856;2022-07-09T22:05:59;4.68;;;0.70;;
36547;SDS011;22551;52.206;4.856;2022-07-09T22:11:13;3.92;;;1.25;;
36547;SDS011;22551;52.206;4.856;2022-07-09T22:16:26;3.10;;;0.63;;
36547;SDS011;22551;52.206;4.856;2022-07-09T22:21:39;0.98;;;0.30;;
36547;SDS011;22551;52.206;4.856;2022-07-09T22:26:53;2.35;;;0.60;;
36547;SDS011;22551;52.206;4.856;2022-07-09T22:31:56;1.67;;;0.73;;
36547;SDS011;22551;52.206;4.856;2022-07-09T22:37:00;6.90;;;0.65;;
36547;SDS011;22551;52.206;4.856;2022-07-09T22:42:10;2.05;;;0.50;;
36547;SDS011;22551;52.206;4.856;2022-07-09T22:47:15;4.60;;;0.73;;
36547;SDS011;22551;52.206;4.856;2022-07-09T22:52:20;5.93;;;1.63;;
36547;SDS011;22551;52.206;4.856;2022-07-09T22:57:24;0.90;;;0.63;;
36547;SDS011;22551;52.206;4.856;2022-07-09T23:02:26;5.45;;;0.57;;
36547;SDS011;22551;52.206;4.856;2022-07-09T23:07:28;4.65;;;0.90;;
36547;SDS011;22551;52.206;4.856;2022-07-09T23:12:50;5.97;;;0.90;;
36547;SDS011;22551;52.206;4.856;2022-07-09T23:17:53;1.58;;;0.60;;
36547;SDS011;22551;52.206;4.856;2022-07-09T23:22:57;5.33;;;0.77;;
36547;SDS011;22551;52.206;4.856;2022-07-09T23:28:03;2.33;;;0.70;;
36547;SDS011;22551;52.206;4.856;2022-07-09T23:33:15;3.72;;;0.60;;
36547;SDS011;22551;52.206;4.856;2022-07-09T23:38:21;7.10;;;0.50;;
36547;SDS011;22551;52.206;4.856;2022-07-09T23:43:30;3.92;;;0.80;;
36547;SDS011;22551;52.206;4.856;2022-07-09T23:48:36;4.32;;;0.70;;
36547;SDS011;22551;52.206;4.856;2022-07-09T23:53:40;14.77;;;1.67;;
36547;SDS011;22551;52.206;4.856;2022-07-09T23:58:59;5.50;;;0.60;;
